sensor_id;sensor_type;location;lat;lon;timestamp;temperature;humidity
65404;DHT22;52014;52.088;5.096;2022-08-01T00:02:16;19.60;99.90
65404;DHT22;52014;52.088;5.096;2022-08-01T00:04:42;19.50;99.90
65404;DHT22;52014;52.088;5.096;2022-08-01T00:07:08;19.60;99.90
65404;DHT22;52014;52.088;5.096;2022-08-01T00:09:33;19.60;99.90
65404;DHT22;52014;52.088;5.096;2022-08-01T00:11:59;19.50;99.90
65404;DHT22;52014;52.088;5.096;2022-08-01T00:14:24;19.50;99.90
65404;DHT22;52014;52.088;5.096;2022-08-01T00:16:50;19.50;99.90
65404;DHT22;52014;52.088;5.096;2022-08-01T00:19:15;19.50;99.90
65404;DHT22;52014;52.088;5.096;2022-08-01T00:21:41;19.50;99.90
65404;DHT22;52014;52.088;5.096;2022-08-01T00:24:06;19.50;99.90
65404;DHT22;52014;52.088;5.096;2022-08-01T00:26:31;19.50;99.90
65404;DHT22;52014;52.088;5.096;2022-08-01T00:28:57;19.50;99.90
65404;DHT22;52014;52.088;5.096;2022-08-01T00:31:22;19.50;99.90
65404;DHT22;52014;52.088;5.096;2022-08-01T00:33:48;19.50;99.90
65404;DHT22;52014;52.088;5.096;2022-08-01T00:36:13;19.50;99.90
65404;DHT22;52014;52.088;5.096;2022-08-01T00:38:39;19.50;99.90
65404;DHT22;52014;52.088;5.096;2022-08-01T00:41:04;19.50;99.90
65404;DHT22;52014;52.088;5.096;2022-08-01T00:43:30;19.50;99.90
65404;DHT22;52014;52.088;5.096;2022-08-01T00:45:55;19.50;99.90
65404;DHT22;52014;52.088;5.096;2022-08-01T00:48:21;19.50;99.90
65404;DHT22;52014;52.088;5.096;2022-08-01T00:50:46;19.50;99.90
65404;DHT22;52014;52.088;5.096;2022-08-01T00:53:11;19.50;99.90
65404;DHT22;52014;52.088;5.096;2022-08-01T00:55:37;19.50;99.90
65404;DHT22;52014;52.088;5.096;2022-08-01T00:58:02;19.40;99.90
65404;DHT22;52014;52.088;5.096;2022-08-01T01:00:28;19.40;99.90
65404;DHT22;52014;52.088;5.096;2022-08-01T01:02:53;19.40;99.90
65404;DHT22;52014;52.088;5.096;2022-08-01T01:05:19;19.40;99.90
65404;DHT22;52014;52.088;5.096;2022-08-01T01:10:18;19.40;99.90
65404;DHT22;52014;52.088;5.096;2022-08-01T01:15:29;19.40;99.90
65404;DHT22;52014;52.088;5.096;2022-08-01T01:18:17;19.30;99.90
65404;DHT22;52014;52.088;5.096;2022-08-01T01:20:45;19.30;99.90
65404;DHT22;52014;52.088;5.096;2022-08-01T01:26:06;19.40;99.90
65404;DHT22;52014;52.088;5.096;2022-08-01T01:28:35;19.40;99.90
65404;DHT22;52014;52.088;5.096;2022-08-01T01:31:06;19.30;99.90
65404;DHT22;52014;52.088;5.096;2022-08-01T01:33:33;19.30;99.90
65404;DHT22;52014;52.088;5.096;2022-08-01T01:36:00;19.30;99.90
65404;DHT22;52014;52.088;5.096;2022-08-01T01:38:29;19.30;99.90
65404;DHT22;52014;52.088;5.096;2022-08-01T01:40:57;19.10;99.90
65404;DHT22;52014;52.088;5.096;2022-08-01T01:43:22;19.20;99.90
65404;DHT22;52014;52.088;5.096;2022-08-01T01:45:48;19.30;99.90
65404;DHT22;52014;52.088;5.096;2022-08-01T01:48:16;19.20;99.90
65404;DHT22;52014;52.088;5.096;2022-08-01T01:50:44;19.20;99.90
65404;DHT22;52014;52.088;5.096;2022-08-01T01:53:10;19.30;99.90
65404;DHT22;52014;52.088;5.096;2022-08-01T01:55:38;19.20;99.90
65404;DHT22;52014;52.088;5.096;2022-08-01T01:58:03;19.20;99.90
65404;DHT22;52014;52.088;5.096;2022-08-01T02:00:30;19.20;99.90
65404;DHT22;52014;52.088;5.096;2022-08-01T02:02:56;19.30;99.90
65404;DHT22;52014;52.088;5.096;2022-08-01T02:05:22;19.30;99.90
65404;DHT22;52014;52.088;5.096;2022-08-01T02:07:48;19.30;99.90
65404;DHT22;52014;52.088;5.096;2022-08-01T02:10:14;19.30;99.90
65404;DHT22;52014;52.088;5.096;2022-08-01T02:12:41;19.30;99.90
65404;DHT22;52014;52.088;5.096;2022-08-01T02:15:07;19.30;99.90
65404;DHT22;52014;52.088;5.096;2022-08-01T02:17:37;19.30;99.90
65404;DHT22;52014;52.088;5.096;2022-08-01T02:20:03;19.30;99.90
65404;DHT22;52014;52.088;5.096;2022-08-01T02:22:40;19.20;99.90
65404;DHT22;52014;52.088;5.096;2022-08-01T02:25:15;19.20;99.90
65404;DHT22;52014;52.088;5.096;2022-08-01T02:27:50;19.20;99.90
65404;DHT22;52014;52.088;5.096;2022-08-01T02:30:17;19.20;99.90
65404;DHT22;52014;52.088;5.096;2022-08-01T02:32:44;19.20;99.90
65404;DHT22;52014;52.088;5.096;2022-08-01T02:35:14;19.20;99.90
65404;DHT22;52014;52.088;5.096;2022-08-01T02:37:43;19.20;99.90
65404;DHT22;52014;52.088;5.096;2022-08-01T02:40:10;19.20;99.90
65404;DHT22;52014;52.088;5.096;2022-08-01T02:42:37;19.20;99.90
65404;DHT22;52014;52.088;5.096;2022-08-01T02:45:04;19.20;99.90
65404;DHT22;52014;52.088;5.096;2022-08-01T02:47:30;19.20;99.90
65404;DHT22;52014;52.088;5.096;2022-08-01T02:49:57;19.20;99.90
65404;DHT22;52014;52.088;5.096;2022-08-01T02:52:24;19.20;99.90
65404;DHT22;52014;52.088;5.096;2022-08-01T02:54:51;19.20;99.90
65404;DHT22;52014;52.088;5.096;2022-08-01T02:57:18;19.30;99.90
65404;DHT22;52014;52.088;5.096;2022-08-01T02:59:45;19.30;99.90
65404;DHT22;52014;52.088;5.096;2022-08-01T03:02:12;19.20;99.90
65404;DHT22;52014;52.088;5.096;2022-08-01T03:04:38;19.20;99.90
65404;DHT22;52014;52.088;5.096;2022-08-01T03:07:06;19.20;99.90
65404;DHT22;52014;52.088;5.096;2022-08-01T03:09:34;19.20;99.90
65404;DHT22;52014;52.088;5.096;2022-08-01T03:12:01;19.20;99.90
65404;DHT22;52014;52.088;5.096;2022-08-01T03:14:27;19.20;99.90
65404;DHT22;52014;52.088;5.096;2022-08-01T03:16:55;19.10;99.90
65404;DHT22;52014;52.088;5.096;2022-08-01T03:19:22;19.10;99.90
65404;DHT22;52014;52.088;5.096;2022-08-01T03:21:49;19.10;99.90
65404;DHT22;52014;52.088;5.096;2022-08-01T03:24:14;19.10;99.90
65404;DHT22;52014;52.088;5.096;2022-08-01T03:26:41;19.10;99.90
65404;DHT22;52014;52.088;5.096;2022-08-01T03:29:09;19.10;99.90
65404;DHT22;52014;52.088;5.096;2022-08-01T03:31:36;19.00;99.90
65404;DHT22;52014;52.088;5.096;2022-08-01T03:34:03;19.00;99.90
65404;DHT22;52014;52.088;5.096;2022-08-01T03:36:29;18.90;99.90
65404;DHT22;52014;52.088;5.096;2022-08-01T03:38:57;18.90;99.90
65404;DHT22;52014;52.088;5.096;2022-08-01T03:41:23;18.90;99.90
65404;DHT22;52014;52.088;5.096;2022-08-01T03:44:00;18.90;99.90
65404;DHT22;52014;52.088;5.096;2022-08-01T03:46:29;18.90;99.90
65404;DHT22;52014;52.088;5.096;2022-08-01T03:48:55;18.80;99.90
65404;DHT22;52014;52.088;5.096;2022-08-01T03:51:23;18.80;99.90
65404;DHT22;52014;52.088;5.096;2022-08-01T03:53:49;18.80;99.90
65404;DHT22;52014;52.088;5.096;2022-08-01T03:56:16;18.70;99.90
65404;DHT22;52014;52.088;5.096;2022-08-01T03:58:44;18.70;99.90
65404;DHT22;52014;52.088;5.096;2022-08-01T04:01:09;18.70;99.90
65404;DHT22;52014;52.088;5.096;2022-08-01T04:03:35;18.80;99.90
65404;DHT22;52014;52.088;5.096;2022-08-01T04:06:04;18.70;99.90
65404;DHT22;52014;52.088;5.096;2022-08-01T04:08:39;18.70;99.90
65404;DHT22;52014;52.088;5.096;2022-08-01T04:11:05;18.60;99.90
65404;DHT22;52014;52.088;5.096;2022-08-01T04:13:31;18.70;99.90
65404;DHT22;52014;52.088;5.096;2022-08-01T04:15:57;18.60;99.90
65404;DHT22;52014;52.088;5.096;2022-08-01T04:18:22;18.60;99.90
65404;DHT22;52014;52.088;5.096;2022-08-01T04:20:48;18.60;99.90
65404;DHT22;52014;52.088;5.096;2022-08-01T04:23:14;18.60;99.90
65404;DHT22;52014;52.088;5.096;2022-08-01T04:25:41;18.60;99.90
65404;DHT22;52014;52.088;5.096;2022-08-01T04:28:07;18.70;99.90
65404;DHT22;52014;52.088;5.096;2022-08-01T04:30:36;18.70;99.90
65404;DHT22;52014;52.088;5.096;2022-08-01T04:33:04;18.80;99.90
65404;DHT22;52014;52.088;5.096;2022-08-01T04:35:31;18.80;99.90
65404;DHT22;52014;52.088;5.096;2022-08-01T04:37:57;18.80;99.90
65404;DHT22;52014;52.088;5.096;2022-08-01T04:40:23;18.80;99.90
65404;DHT22;52014;52.088;5.096;2022-08-01T04:42:51;18.80;99.90
65404;DHT22;52014;52.088;5.096;2022-08-01T04:45:16;18.80;99.90
65404;DHT22;52014;52.088;5.096;2022-08-01T04:47:42;18.90;99.90
65404;DHT22;52014;52.088;5.096;2022-08-01T04:50:08;18.90;99.90
65404;DHT22;52014;52.088;5.096;2022-08-01T04:52:34;18.90;99.90
65404;DHT22;52014;52.088;5.096;2022-08-01T04:55:00;18.90;99.90
65404;DHT22;52014;52.088;5.096;2022-08-01T04:57:25;18.90;99.90
65404;DHT22;52014;52.088;5.096;2022-08-01T04:59:51;19.00;99.90
65404;DHT22;52014;52.088;5.096;2022-08-01T05:02:22;18.90;99.90
65404;DHT22;52014;52.088;5.096;2022-08-01T05:04:47;18.90;99.90
65404;DHT22;52014;52.088;5.096;2022-08-01T05:07:13;18.90;99.90
65404;DHT22;52014;52.088;5.096;2022-08-01T05:09:39;19.00;99.90
65404;DHT22;52014;52.088;5.096;2022-08-01T05:12:06;18.90;99.90
65404;DHT22;52014;52.088;5.096;2022-08-01T05:14:32;18.90;99.90
65404;DHT22;52014;52.088;5.096;2022-08-01T05:16:58;18.90;99.90
65404;DHT22;52014;52.088;5.096;2022-08-01T05:19:24;18.90;99.90
65404;DHT22;52014;52.088;5.096;2022-08-01T05:21:50;18.90;99.90
65404;DHT22;52014;52.088;5.096;2022-08-01T05:24:16;18.90;99.90
65404;DHT22;52014;52.088;5.096;2022-08-01T05:26:41;18.90;99.90
65404;DHT22;52014;52.088;5.096;2022-08-01T05:29:07;18.90;99.90
65404;DHT22;52014;52.088;5.096;2022-08-01T05:31:32;18.90;99.90
65404;DHT22;52014;52.088;5.096;2022-08-01T05:34:00;18.90;99.90
65404;DHT22;52014;52.088;5.096;2022-08-01T05:36:25;18.90;99.90
65404;DHT22;52014;52.088;5.096;2022-08-01T05:38:51;18.90;99.90
65404;DHT22;52014;52.088;5.096;2022-08-01T05:41:16;18.90;99.90
65404;DHT22;52014;52.088;5.096;2022-08-01T05:43:42;18.90;99.90
65404;DHT22;52014;52.088;5.096;2022-08-01T05:46:07;18.90;99.90
65404;DHT22;52014;52.088;5.096;2022-08-01T05:48:33;18.90;99.90
65404;DHT22;52014;52.088;5.096;2022-08-01T05:50:58;18.90;99.90
65404;DHT22;52014;52.088;5.096;2022-08-01T05:53:24;18.90;99.90
65404;DHT22;52014;52.088;5.096;2022-08-01T05:55:49;18.90;99.90
65404;DHT22;52014;52.088;5.096;2022-08-01T05:58:15;19.00;99.90
65404;DHT22;52014;52.088;5.096;2022-08-01T06:00:40;19.00;99.90
65404;DHT22;52014;52.088;5.096;2022-08-01T06:03:06;19.00;99.90
65404;DHT22;52014;52.088;5.096;2022-08-01T06:05:31;19.00;99.90
65404;DHT22;52014;52.088;5.096;2022-08-01T06:07:56;19.00;99.90
65404;DHT22;52014;52.088;5.096;2022-08-01T06:10:23;19.00;99.90
65404;DHT22;52014;52.088;5.096;2022-08-01T06:12:51;19.00;99.90
65404;DHT22;52014;52.088;5.096;2022-08-01T06:15:17;19.00;99.90
65404;DHT22;52014;52.088;5.096;2022-08-01T06:17:42;19.00;99.90
65404;DHT22;52014;52.088;5.096;2022-08-01T06:20:08;19.10;99.90
65404;DHT22;52014;52.088;5.096;2022-08-01T06:22:33;19.10;99.90
65404;DHT22;52014;52.088;5.096;2022-08-01T06:24:59;19.20;99.90
65404;DHT22;52014;52.088;5.096;2022-08-01T06:27:24;19.20;99.90
65404;DHT22;52014;52.088;5.096;2022-08-01T06:29:51;19.30;99.90
65404;DHT22;52014;52.088;5.096;2022-08-01T06:32:19;19.40;99.90
65404;DHT22;52014;52.088;5.096;2022-08-01T06:34:44;19.40;99.90
65404;DHT22;52014;52.088;5.096;2022-08-01T06:37:10;19.40;99.90
65404;DHT22;52014;52.088;5.096;2022-08-01T06:39:38;19.40;99.90
65404;DHT22;52014;52.088;5.096;2022-08-01T06:42:03;19.50;99.90
65404;DHT22;52014;52.088;5.096;2022-08-01T06:44:29;19.60;99.90
65404;DHT22;52014;52.088;5.096;2022-08-01T06:46:54;19.60;99.90
65404;DHT22;52014;52.088;5.096;2022-08-01T06:49:20;19.60;99.90
65404;DHT22;52014;52.088;5.096;2022-08-01T06:51:45;19.60;99.90
65404;DHT22;52014;52.088;5.096;2022-08-01T06:54:11;19.70;99.90
65404;DHT22;52014;52.088;5.096;2022-08-01T06:56:36;19.70;99.90
65404;DHT22;52014;52.088;5.096;2022-08-01T06:59:02;19.60;99.90
65404;DHT22;52014;52.088;5.096;2022-08-01T07:01:28;19.60;99.90
65404;DHT22;52014;52.088;5.096;2022-08-01T07:03:53;19.60;99.90
65404;DHT22;52014;52.088;5.096;2022-08-01T07:06:20;19.60;99.90
65404;DHT22;52014;52.088;5.096;2022-08-01T07:08:45;19.60;99.90
65404;DHT22;52014;52.088;5.096;2022-08-01T07:11:11;19.70;99.90
65404;DHT22;52014;52.088;5.096;2022-08-01T07:13:36;19.60;99.90
65404;DHT22;52014;52.088;5.096;2022-08-01T07:16:02;19.60;99.90
65404;DHT22;52014;52.088;5.096;2022-08-01T07:18:27;19.60;99.90
65404;DHT22;52014;52.088;5.096;2022-08-01T07:20:53;19.70;99.90
65404;DHT22;52014;52.088;5.096;2022-08-01T07:23:18;19.90;99.90
65404;DHT22;52014;52.088;5.096;2022-08-01T07:25:43;19.90;99.90
65404;DHT22;52014;52.088;5.096;2022-08-01T07:28:09;20.00;99.90
65404;DHT22;52014;52.088;5.096;2022-08-01T07:30:35;19.90;99.90
65404;DHT22;52014;52.088;5.096;2022-08-01T07:33:00;19.90;99.90
65404;DHT22;52014;52.088;5.096;2022-08-01T07:35:26;19.90;99.90
65404;DHT22;52014;52.088;5.096;2022-08-01T07:37:51;20.00;99.90
65404;DHT22;52014;52.088;5.096;2022-08-01T07:40:18;20.00;99.90
65404;DHT22;52014;52.088;5.096;2022-08-01T07:42:44;20.00;99.90
65404;DHT22;52014;52.088;5.096;2022-08-01T07:45:10;20.10;99.90
65404;DHT22;52014;52.088;5.096;2022-08-01T07:47:36;20.10;99.90
65404;DHT22;52014;52.088;5.096;2022-08-01T07:50:02;20.30;99.90
65404;DHT22;52014;52.088;5.096;2022-08-01T07:52:28;20.30;99.90
65404;DHT22;52014;52.088;5.096;2022-08-01T07:54:54;20.50;99.90
65404;DHT22;52014;52.088;5.096;2022-08-01T07:57:21;20.70;99.90
65404;DHT22;52014;52.088;5.096;2022-08-01T07:59:47;20.80;99.90
65404;DHT22;52014;52.088;5.096;2022-08-01T08:02:12;20.70;99.90
65404;DHT22;52014;52.088;5.096;2022-08-01T08:04:38;20.70;99.90
65404;DHT22;52014;52.088;5.096;2022-08-01T08:07:03;20.70;99.90
65404;DHT22;52014;52.088;5.096;2022-08-01T08:09:29;20.80;99.90
65404;DHT22;52014;52.088;5.096;2022-08-01T08:11:54;21.00;99.90
65404;DHT22;52014;52.088;5.096;2022-08-01T08:14:20;21.20;99.90
65404;DHT22;52014;52.088;5.096;2022-08-01T08:16:48;21.10;99.90
65404;DHT22;52014;52.088;5.096;2022-08-01T08:19:13;21.10;99.90
65404;DHT22;52014;52.088;5.096;2022-08-01T08:21:39;21.00;99.90
65404;DHT22;52014;52.088;5.096;2022-08-01T08:24:05;21.10;99.90
65404;DHT22;52014;52.088;5.096;2022-08-01T08:26:47;21.30;99.90
65404;DHT22;52014;52.088;5.096;2022-08-01T08:29:12;21.40;99.90
65404;DHT22;52014;52.088;5.096;2022-08-01T08:31:38;21.60;99.90
65404;DHT22;52014;52.088;5.096;2022-08-01T08:34:03;21.70;99.90
65404;DHT22;52014;52.088;5.096;2022-08-01T08:36:29;21.80;99.90
65404;DHT22;52014;52.088;5.096;2022-08-01T08:38:54;21.80;99.90
65404;DHT22;52014;52.088;5.096;2022-08-01T08:41:20;22.00;99.90
65404;DHT22;52014;52.088;5.096;2022-08-01T08:43:46;21.90;99.90
65404;DHT22;52014;52.088;5.096;2022-08-01T08:46:12;21.80;99.90
65404;DHT22;52014;52.088;5.096;2022-08-01T08:48:39;21.60;99.90
65404;DHT22;52014;52.088;5.096;2022-08-01T08:51:05;21.60;99.90
65404;DHT22;52014;52.088;5.096;2022-08-01T08:53:31;21.50;99.90
65404;DHT22;52014;52.088;5.096;2022-08-01T08:55:58;21.50;99.90
65404;DHT22;52014;52.088;5.096;2022-08-01T08:58:25;21.50;99.90
65404;DHT22;52014;52.088;5.096;2022-08-01T09:00:51;21.50;99.90
65404;DHT22;52014;52.088;5.096;2022-08-01T09:03:17;21.50;99.90
65404;DHT22;52014;52.088;5.096;2022-08-01T09:05:43;21.50;99.90
65404;DHT22;52014;52.088;5.096;2022-08-01T09:08:09;21.60;99.90
65404;DHT22;52014;52.088;5.096;2022-08-01T09:10:35;21.60;99.90
65404;DHT22;52014;52.088;5.096;2022-08-01T09:13:07;21.70;99.90
65404;DHT22;52014;52.088;5.096;2022-08-01T09:15:40;21.80;99.90
65404;DHT22;52014;52.088;5.096;2022-08-01T09:18:06;21.80;99.90
65404;DHT22;52014;52.088;5.096;2022-08-01T09:20:31;22.00;99.90
65404;DHT22;52014;52.088;5.096;2022-08-01T09:22:57;22.00;99.90
65404;DHT22;52014;52.088;5.096;2022-08-01T09:25:22;22.00;99.90
65404;DHT22;52014;52.088;5.096;2022-08-01T09:27:48;22.10;99.90
65404;DHT22;52014;52.088;5.096;2022-08-01T09:30:26;22.20;99.90
65404;DHT22;52014;52.088;5.096;2022-08-01T09:32:52;22.30;99.90
65404;DHT22;52014;52.088;5.096;2022-08-01T09:35:26;22.30;99.90
65404;DHT22;52014;52.088;5.096;2022-08-01T09:38:00;22.30;99.90
65404;DHT22;52014;52.088;5.096;2022-08-01T09:40:49;22.30;99.90
65404;DHT22;52014;52.088;5.096;2022-08-01T09:43:15;22.10;99.90
65404;DHT22;52014;52.088;5.096;2022-08-01T09:45:41;22.30;99.90
65404;DHT22;52014;52.088;5.096;2022-08-01T09:48:07;22.30;99.90
65404;DHT22;52014;52.088;5.096;2022-08-01T09:50:39;22.30;99.90
65404;DHT22;52014;52.088;5.096;2022-08-01T09:53:06;22.30;99.90
65404;DHT22;52014;52.088;5.096;2022-08-01T09:55:31;22.30;99.90
65404;DHT22;52014;52.088;5.096;2022-08-01T09:57:57;22.30;99.90
65404;DHT22;52014;52.088;5.096;2022-08-01T10:00:26;22.30;99.90
65404;DHT22;52014;52.088;5.096;2022-08-01T10:02:51;22.40;99.90
65404;DHT22;52014;52.088;5.096;2022-08-01T10:05:17;22.40;99.90
65404;DHT22;52014;52.088;5.096;2022-08-01T10:07:55;22.50;99.90
65404;DHT22;52014;52.088;5.096;2022-08-01T10:10:21;22.60;99.90
65404;DHT22;52014;52.088;5.096;2022-08-01T10:12:46;22.50;99.90
65404;DHT22;52014;52.088;5.096;2022-08-01T10:15:16;22.50;99.40
65404;DHT22;52014;52.088;5.096;2022-08-01T10:17:44;22.40;97.70
65404;DHT22;52014;52.088;5.096;2022-08-01T10:20:10;22.40;96.80
65404;DHT22;52014;52.088;5.096;2022-08-01T10:22:36;22.40;98.10
65404;DHT22;52014;52.088;5.096;2022-08-01T10:25:03;22.60;99.10
65404;DHT22;52014;52.088;5.096;2022-08-01T10:27:29;22.70;99.20
65404;DHT22;52014;52.088;5.096;2022-08-01T10:29:56;22.70;99.60
65404;DHT22;52014;52.088;5.096;2022-08-01T10:32:22;22.60;99.90
65404;DHT22;52014;52.088;5.096;2022-08-01T10:34:48;22.70;99.90
65404;DHT22;52014;52.088;5.096;2022-08-01T10:37:14;22.90;99.10
65404;DHT22;52014;52.088;5.096;2022-08-01T10:39:40;23.10;99.50
65404;DHT22;52014;52.088;5.096;2022-08-01T10:42:05;22.90;96.20
65404;DHT22;52014;52.088;5.096;2022-08-01T10:44:31;22.90;92.90
65404;DHT22;52014;52.088;5.096;2022-08-01T10:46:59;22.90;95.30
65404;DHT22;52014;52.088;5.096;2022-08-01T10:49:27;23.00;94.90
65404;DHT22;52014;52.088;5.096;2022-08-01T10:51:54;23.00;96.20
65404;DHT22;52014;52.088;5.096;2022-08-01T10:54:20;23.00;93.50
65404;DHT22;52014;52.088;5.096;2022-08-01T10:56:49;23.10;94.70
65404;DHT22;52014;52.088;5.096;2022-08-01T10:59:25;23.30;91.30
65404;DHT22;52014;52.088;5.096;2022-08-01T11:01:57;23.10;90.50
65404;DHT22;52014;52.088;5.096;2022-08-01T11:04:31;23.10;90.30
65404;DHT22;52014;52.088;5.096;2022-08-01T11:07:13;23.10;89.50
65404;DHT22;52014;52.088;5.096;2022-08-01T11:09:45;23.20;92.20
65404;DHT22;52014;52.088;5.096;2022-08-01T11:12:11;23.10;93.40
65404;DHT22;52014;52.088;5.096;2022-08-01T11:17:33;23.00;96.80
65404;DHT22;52014;52.088;5.096;2022-08-01T11:22:30;23.10;96.00
65404;DHT22;52014;52.088;5.096;2022-08-01T11:24:56;23.40;93.30
65404;DHT22;52014;52.088;5.096;2022-08-01T11:27:26;23.30;94.60
65404;DHT22;52014;52.088;5.096;2022-08-01T11:32:45;23.30;92.40
65404;DHT22;52014;52.088;5.096;2022-08-01T11:35:11;23.30;91.60
65404;DHT22;52014;52.088;5.096;2022-08-01T11:37:37;23.40;83.40
65404;DHT22;52014;52.088;5.096;2022-08-01T11:42:47;23.40;83.80
65404;DHT22;52014;52.088;5.096;2022-08-01T11:45:12;23.30;80.00
65404;DHT22;52014;52.088;5.096;2022-08-01T11:47:45;23.40;76.90
65404;DHT22;52014;52.088;5.096;2022-08-01T11:53:01;23.40;68.60
65404;DHT22;52014;52.088;5.096;2022-08-01T11:55:27;23.30;69.80
65404;DHT22;52014;52.088;5.096;2022-08-01T11:58:03;23.20;66.20
65404;DHT22;52014;52.088;5.096;2022-08-01T12:00:29;23.30;67.10
65404;DHT22;52014;52.088;5.096;2022-08-01T12:03:00;23.20;62.80
65404;DHT22;52014;52.088;5.096;2022-08-01T12:05:26;23.20;60.10
65404;DHT22;52014;52.088;5.096;2022-08-01T12:07:52;23.20;60.90
65404;DHT22;52014;52.088;5.096;2022-08-01T12:10:19;23.10;56.90
65404;DHT22;52014;52.088;5.096;2022-08-01T12:12:48;23.10;55.90
65404;DHT22;52014;52.088;5.096;2022-08-01T12:15:14;23.10;56.10
65404;DHT22;52014;52.088;5.096;2022-08-01T12:17:40;23.10;56.20
65404;DHT22;52014;52.088;5.096;2022-08-01T12:20:08;23.20;57.70
65404;DHT22;52014;52.088;5.096;2022-08-01T12:22:34;23.00;54.70
65404;DHT22;52014;52.088;5.096;2022-08-01T12:25:06;23.00;55.70
65404;DHT22;52014;52.088;5.096;2022-08-01T12:27:32;23.10;54.90
65404;DHT22;52014;52.088;5.096;2022-08-01T12:29:58;23.00;54.10
65404;DHT22;52014;52.088;5.096;2022-08-01T12:32:25;23.00;50.40
65404;DHT22;52014;52.088;5.096;2022-08-01T12:34:51;23.00;52.30
65404;DHT22;52014;52.088;5.096;2022-08-01T12:37:17;22.90;48.40
65404;DHT22;52014;52.088;5.096;2022-08-01T12:39:43;22.90;47.90
65404;DHT22;52014;52.088;5.096;2022-08-01T12:42:09;22.80;44.00
65404;DHT22;52014;52.088;5.096;2022-08-01T12:44:36;22.90;45.80
65404;DHT22;52014;52.088;5.096;2022-08-01T12:47:03;22.90;47.40
65404;DHT22;52014;52.088;5.096;2022-08-01T12:49:29;22.70;48.00
65404;DHT22;52014;52.088;5.096;2022-08-01T12:51:55;22.80;50.50
65404;DHT22;52014;52.088;5.096;2022-08-01T12:54:21;23.00;51.50
65404;DHT22;52014;52.088;5.096;2022-08-01T12:56:47;23.00;51.40
65404;DHT22;52014;52.088;5.096;2022-08-01T12:59:19;23.00;49.60
65404;DHT22;52014;52.088;5.096;2022-08-01T13:01:45;22.90;50.20
65404;DHT22;52014;52.088;5.096;2022-08-01T13:04:11;22.80;51.40
65404;DHT22;52014;52.088;5.096;2022-08-01T13:06:37;22.80;47.80
65404;DHT22;52014;52.088;5.096;2022-08-01T13:09:06;22.90;50.20
65404;DHT22;52014;52.088;5.096;2022-08-01T13:11:31;22.90;49.60
65404;DHT22;52014;52.088;5.096;2022-08-01T13:13:57;23.00;49.10
65404;DHT22;52014;52.088;5.096;2022-08-01T13:16:24;22.90;47.60
65404;DHT22;52014;52.088;5.096;2022-08-01T13:18:51;22.90;48.90
65404;DHT22;52014;52.088;5.096;2022-08-01T13:21:17;22.90;54.60
65404;DHT22;52014;52.088;5.096;2022-08-01T13:26:43;22.90;58.80
65404;DHT22;52014;52.088;5.096;2022-08-01T13:29:10;22.90;52.70
65404;DHT22;52014;52.088;5.096;2022-08-01T13:31:36;22.80;53.30
65404;DHT22;52014;52.088;5.096;2022-08-01T13:34:02;22.80;49.50
65404;DHT22;52014;52.088;5.096;2022-08-01T13:36:28;22.70;51.30
65404;DHT22;52014;52.088;5.096;2022-08-01T13:38:55;22.80;51.60
65404;DHT22;52014;52.088;5.096;2022-08-01T13:41:39;22.80;50.00
65404;DHT22;52014;52.088;5.096;2022-08-01T13:44:04;22.80;48.00
65404;DHT22;52014;52.088;5.096;2022-08-01T13:46:30;22.70;46.20
65404;DHT22;52014;52.088;5.096;2022-08-01T13:48:56;22.80;48.70
65404;DHT22;52014;52.088;5.096;2022-08-01T13:51:22;22.80;49.10
65404;DHT22;52014;52.088;5.096;2022-08-01T13:53:47;22.80;49.10
65404;DHT22;52014;52.088;5.096;2022-08-01T13:56:13;22.80;52.80
65404;DHT22;52014;52.088;5.096;2022-08-01T13:58:38;22.80;50.20
65404;DHT22;52014;52.088;5.096;2022-08-01T14:01:03;22.80;49.20
65404;DHT22;52014;52.088;5.096;2022-08-01T14:03:29;22.70;49.30
65404;DHT22;52014;52.088;5.096;2022-08-01T14:05:55;22.70;52.80
65404;DHT22;52014;52.088;5.096;2022-08-01T14:08:21;22.80;48.70
65404;DHT22;52014;52.088;5.096;2022-08-01T14:10:46;22.80;50.90
65404;DHT22;52014;52.088;5.096;2022-08-01T14:13:12;22.80;50.70
65404;DHT22;52014;52.088;5.096;2022-08-01T14:15:37;22.60;50.80
65404;DHT22;52014;52.088;5.096;2022-08-01T14:18:03;22.60;47.80
65404;DHT22;52014;52.088;5.096;2022-08-01T14:20:28;22.60;47.50
65404;DHT22;52014;52.088;5.096;2022-08-01T14:22:54;22.50;52.10
65404;DHT22;52014;52.088;5.096;2022-08-01T14:25:19;22.60;50.10
65404;DHT22;52014;52.088;5.096;2022-08-01T14:27:45;22.60;48.40
65404;DHT22;52014;52.088;5.096;2022-08-01T14:30:11;22.50;49.20
65404;DHT22;52014;52.088;5.096;2022-08-01T14:32:36;22.50;50.50
65404;DHT22;52014;52.088;5.096;2022-08-01T14:35:03;22.50;46.40
65404;DHT22;52014;52.088;5.096;2022-08-01T14:37:29;22.50;46.70
65404;DHT22;52014;52.088;5.096;2022-08-01T14:39:57;22.40;47.60
65404;DHT22;52014;52.088;5.096;2022-08-01T14:42:23;22.50;48.30
65404;DHT22;52014;52.088;5.096;2022-08-01T14:44:48;22.40;47.50
65404;DHT22;52014;52.088;5.096;2022-08-01T14:47:14;22.50;45.20
65404;DHT22;52014;52.088;5.096;2022-08-01T14:49:39;22.60;46.00
65404;DHT22;52014;52.088;5.096;2022-08-01T14:52:05;22.60;45.50
65404;DHT22;52014;52.088;5.096;2022-08-01T14:54:30;22.60;49.10
65404;DHT22;52014;52.088;5.096;2022-08-01T14:56:56;22.60;49.20
65404;DHT22;52014;52.088;5.096;2022-08-01T14:59:21;22.70;49.70
65404;DHT22;52014;52.088;5.096;2022-08-01T15:01:47;22.70;48.90
65404;DHT22;52014;52.088;5.096;2022-08-01T15:04:12;22.70;42.90
65404;DHT22;52014;52.088;5.096;2022-08-01T15:06:38;22.70;38.10
65404;DHT22;52014;52.088;5.096;2022-08-01T15:09:03;22.80;43.90
65404;DHT22;52014;52.088;5.096;2022-08-01T15:11:29;22.90;48.20
65404;DHT22;52014;52.088;5.096;2022-08-01T15:13:54;22.90;46.10
65404;DHT22;52014;52.088;5.096;2022-08-01T15:16:40;22.90;49.10
65404;DHT22;52014;52.088;5.096;2022-08-01T15:19:05;22.90;49.30
65404;DHT22;52014;52.088;5.096;2022-08-01T15:21:31;22.70;46.80
65404;DHT22;52014;52.088;5.096;2022-08-01T15:23:56;22.60;45.50
65404;DHT22;52014;52.088;5.096;2022-08-01T15:26:22;22.70;44.60
65404;DHT22;52014;52.088;5.096;2022-08-01T15:28:47;22.70;43.80
65404;DHT22;52014;52.088;5.096;2022-08-01T15:31:13;22.60;46.00
65404;DHT22;52014;52.088;5.096;2022-08-01T15:33:38;22.60;48.30
65404;DHT22;52014;52.088;5.096;2022-08-01T15:36:04;22.50;48.40
65404;DHT22;52014;52.088;5.096;2022-08-01T15:38:29;22.50;44.00
65404;DHT22;52014;52.088;5.096;2022-08-01T15:40:55;22.40;41.30
65404;DHT22;52014;52.088;5.096;2022-08-01T15:43:20;22.60;42.50
65404;DHT22;52014;52.088;5.096;2022-08-01T15:45:45;22.70;39.50
65404;DHT22;52014;52.088;5.096;2022-08-01T15:48:11;22.70;34.70
65404;DHT22;52014;52.088;5.096;2022-08-01T15:50:37;22.80;31.40
65404;DHT22;52014;52.088;5.096;2022-08-01T15:53:03;22.80;32.50